PWSweather.com
Personal Weather Stations
Station Observations
SELKIRK1
Ontario, Selkirk, ON N0A 1P0

OntarioSelkirk, ON N0A 1P0

Lat: 42.8083652, Lon: -79.94971040000001

Elevation: 583

Station Type: Acurite 5 in 1

http://gavinsurf.com

High Low Average
Temperature 75.4°F24.1°C 63.7°F17.6°C 69.5°F20.8°C
Dew Point 72.2°F22.3°C 62.8°F17.1°C 67.8°F19.9°C
Winds 9.2 mph 14.8 kmh Calm Calm 4.0 mph S6.4 kmh S
Wind Gusts 10.4 mph16.7 kmh -- 5.0 mph8.0 kmh
Humidity 99% 86% 95%
Pressure 31.82 in1077.5 mb 30.10 in1019.3 mb -
Precipitation 0.03 in0.8 mm - -
Hour Temp Dew Point Humidity Winds Wind Gusts Pressure Precip Precip Rate Daily Precip Total
12:00 AM 67.3°F19.6°C 66.7°F19.3°C 98% 3.5 mph SSW5.6 kmh SSW 4.6 mph7.4 kmh 31.78 in1076.2 mb - 0.00 in0.0 mm 0.00 in0.0 mm
12:10 AM 67.3°F19.6°C 66.7°F19.3°C 98% 3.5 mph WSW5.6 kmh WSW 5.8 mph9.3 kmh 31.78 in1076.2 mb - 0.00 in0.0 mm 0.00 in0.0 mm
12:15 AM 67.1°F19.5°C 66.5°F19.2°C 98% 4.6 mph WSW7.4 kmh WSW 5.8 mph9.3 kmh 31.78 in1076.2 mb - 0.00 in0.0 mm 0.00 in0.0 mm
12:20 AM 67.1°F19.5°C 66.8°F19.3°C 99% 4.6 mph SW7.4 kmh SW 5.8 mph9.3 kmh 31.78 in1076.2 mb - 0.00 in0.0 mm 0.00 in0.0 mm
12:25 AM 67.3°F19.6°C 67.0°F19.4°C 99% 5.8 mph SW9.3 kmh SW 6.9 mph11.1 kmh 31.78 in1076.2 mb - 0.00 in0.0 mm 0.00 in0.0 mm
12:30 AM 67.3°F19.6°C 67.0°F19.4°C 99% 3.5 mph WSW5.6 kmh WSW 4.6 mph7.4 kmh 31.78 in1076.2 mb - 0.00 in0.0 mm 0.00 in0.0 mm
12:35 AM 67.3°F19.6°C 67.0°F19.4°C 99% 3.5 mph SW5.6 kmh SW 4.6 mph7.4 kmh 31.78 in1076.2 mb - 0.00 in0.0 mm 0.00 in0.0 mm
12:40 AM 67.1°F19.5°C 66.8°F19.3°C 99% 5.8 mph SW9.3 kmh SW 5.8 mph9.3 kmh 31.78 in1076.2 mb - 0.00 in0.0 mm 0.00 in0.0 mm
12:45 AM 67.1°F19.5°C 66.8°F19.3°C 99% 4.6 mph WSW7.4 kmh WSW 4.6 mph7.4 kmh 31.78 in1076.2 mb - 0.00 in0.0 mm 0.00 in0.0 mm
12:50 AM 67.1°F19.5°C 66.8°F19.3°C 99% 4.6 mph WSW7.4 kmh WSW 6.9 mph11.1 kmh 31.78 in1076.2 mb - 0.00 in0.0 mm 0.00 in0.0 mm
12:55 AM 67.3°F19.6°C 67.0°F19.4°C 99% 5.8 mph SW9.3 kmh SW 9.2 mph14.8 kmh 31.78 in1076.2 mb - 0.00 in0.0 mm 0.00 in0.0 mm
01:00 AM 68.1°F20.1°C 67.9°F19.9°C 99% 8.1 mph SW13.0 kmh SW 9.2 mph14.8 kmh 31.78 in1076.2 mb - 0.00 in0.0 mm 0.00 in0.0 mm
01:10 AM 68.2°F20.1°C 67.6°F19.8°C 98% 4.6 mph SW7.4 kmh SW 5.8 mph9.3 kmh 31.78 in1076.2 mb - 0.00 in0.0 mm 0.00 in0.0 mm
01:15 AM 68.2°F20.1°C 67.6°F19.8°C 98% 4.6 mph SW7.4 kmh SW 6.9 mph11.1 kmh 31.78 in1076.2 mb - 0.00 in0.0 mm 0.00 in0.0 mm
01:20 AM 68.2°F20.1°C 67.6°F19.8°C 98% 5.8 mph SW9.3 kmh SW 9.2 mph14.8 kmh 31.78 in1076.2 mb - 0.00 in0.0 mm 0.00 in0.0 mm
01:25 AM 68.2°F20.1°C 67.6°F19.8°C 98% 6.9 mph SW11.1 kmh SW 8.1 mph13.0 kmh 31.78 in1076.2 mb - 0.00 in0.0 mm 0.00 in0.0 mm
01:30 AM 68.0°F20.0°C 67.4°F19.7°C 98% 5.8 mph SW9.3 kmh SW 5.8 mph9.3 kmh 31.78 in1076.2 mb - 0.00 in0.0 mm 0.00 in0.0 mm
01:35 AM 68.0°F20.0°C 67.4°F19.7°C 98% 3.5 mph SW5.6 kmh SW 4.6 mph7.4 kmh 31.78 in1076.2 mb - 0.00 in0.0 mm 0.00 in0.0 mm
01:40 AM 68.0°F20.0°C 67.4°F19.7°C 98% 4.6 mph SW7.4 kmh SW 4.6 mph7.4 kmh 31.78 in1076.2 mb - 0.00 in0.0 mm 0.00 in0.0 mm
01:45 AM 67.9°F19.9°C 67.0°F19.4°C 97% 4.6 mph WSW7.4 kmh WSW 6.9 mph11.1 kmh 31.78 in1076.2 mb - 0.00 in0.0 mm 0.00 in0.0 mm
01:50 AM 67.8°F19.9°C 66.6°F19.2°C 96% 4.6 mph SW7.4 kmh SW 6.9 mph11.1 kmh 31.78 in1076.2 mb - 0.00 in0.0 mm 0.00 in0.0 mm
01:55 AM 68.4°F20.2°C 66.6°F19.2°C 94% 3.5 mph SW5.6 kmh SW 4.6 mph7.4 kmh 31.78 in1076.2 mb - 0.00 in0.0 mm 0.00 in0.0 mm
02:00 AM 68.8°F20.4°C 66.4°F19.1°C 92% 4.6 mph SW7.4 kmh SW 4.6 mph7.4 kmh 31.78 in1076.2 mb - 0.00 in0.0 mm 0.00 in0.0 mm
02:10 AM 70.3°F21.3°C 66.9°F19.4°C 89% 9.2 mph WSW14.8 kmh WSW 10.4 mph16.7 kmh 31.78 in1076.2 mb - 0.00 in0.0 mm 0.00 in0.0 mm
02:15 AM 70.5°F21.4°C 67.1°F19.5°C 89% 6.9 mph SW11.1 kmh SW 6.9 mph11.1 kmh 31.78 in1076.2 mb - 0.00 in0.0 mm 0.00 in0.0 mm
02:20 AM 70.4°F21.3°C 67.6°F19.8°C 91% 5.8 mph SSW9.3 kmh SSW 8.1 mph13.0 kmh 31.78 in1076.2 mb - 0.00 in0.0 mm 0.00 in0.0 mm
02:25 AM 70.5°F21.4°C 68.4°F20.2°C 93% 6.9 mph SSW11.1 kmh SSW 10.4 mph16.7 kmh 31.78 in1076.2 mb - 0.00 in0.0 mm 0.00 in0.0 mm
02:30 AM 70.7°F21.5°C 69.5°F20.8°C 96% 8.1 mph SW13.0 kmh SW 8.1 mph13.0 kmh 31.78 in1076.2 mb - 0.00 in0.0 mm 0.00 in0.0 mm
02:35 AM 70.7°F21.5°C 69.2°F20.7°C 95% 8.1 mph SW13.0 kmh SW 9.2 mph14.8 kmh 31.78 in1076.2 mb - 0.00 in0.0 mm 0.00 in0.0 mm
02:40 AM 70.4°F21.3°C 68.9°F20.5°C 95% 6.9 mph SW11.1 kmh SW 6.9 mph11.1 kmh 31.78 in1076.2 mb - 0.00 in0.0 mm 0.00 in0.0 mm
02:45 AM 70.0°F21.1°C 68.5°F20.3°C 95% 3.5 mph SW5.6 kmh SW 4.6 mph7.4 kmh 31.78 in1076.2 mb - 0.00 in0.0 mm 0.00 in0.0 mm
02:50 AM 69.7°F20.9°C 68.2°F20.1°C 95% 3.5 mph WSW5.6 kmh WSW 4.6 mph7.4 kmh 31.78 in1076.2 mb - 0.00 in0.0 mm 0.00 in0.0 mm
02:55 AM 69.5°F20.8°C 68.3°F20.2°C 96% 3.5 mph WSW5.6 kmh WSW 3.5 mph5.6 kmh 31.78 in1076.2 mb - 0.00 in0.0 mm 0.00 in0.0 mm
03:00 AM 69.3°F20.7°C 68.1°F20.1°C 96% 2.3 mph W3.7 kmh W 2.3 mph3.7 kmh 31.78 in1076.2 mb - 0.00 in0.0 mm 0.00 in0.0 mm
03:10 AM 68.9°F20.5°C 67.7°F19.8°C 96% 3.5 mph SW5.6 kmh SW 4.6 mph7.4 kmh 31.78 in1076.2 mb - 0.00 in0.0 mm 0.00 in0.0 mm
03:15 AM 68.7°F20.4°C 67.8°F19.9°C 97% 2.3 mph WSW3.7 kmh WSW 3.5 mph5.6 kmh 31.78 in1076.2 mb - 0.00 in0.0 mm 0.00 in0.0 mm
03:20 AM 68.6°F20.3°C 67.7°F19.8°C 97% 4.6 mph SW7.4 kmh SW 5.8 mph9.3 kmh 31.78 in1076.2 mb - 0.00 in0.0 mm 0.00 in0.0 mm
03:25 AM 68.6°F20.3°C 67.7°F19.8°C 97% 3.5 mph SW5.6 kmh SW 4.6 mph7.4 kmh 31.78 in1076.2 mb - 0.00 in0.0 mm 0.00 in0.0 mm
03:30 AM 68.4°F20.2°C 67.5°F19.7°C 97% 3.5 mph SW5.6 kmh SW 4.6 mph7.4 kmh 31.78 in1076.2 mb - 0.00 in0.0 mm 0.00 in0.0 mm
03:35 AM 68.5°F20.3°C 67.9°F19.9°C 98% 5.8 mph SW9.3 kmh SW 6.9 mph11.1 kmh 31.78 in1076.2 mb - 0.00 in0.0 mm 0.00 in0.0 mm
03:40 AM 68.7°F20.4°C 68.1°F20.1°C 98% 4.6 mph SW7.4 kmh SW 5.8 mph9.3 kmh 31.78 in1076.2 mb - 0.00 in0.0 mm 0.00 in0.0 mm
03:45 AM 69.1°F20.6°C 68.5°F20.3°C 98% 5.8 mph SW9.3 kmh SW 6.9 mph11.1 kmh 31.78 in1076.2 mb - 0.00 in0.0 mm 0.00 in0.0 mm
03:50 AM 69.1°F20.6°C 68.2°F20.1°C 97% 4.6 mph WSW7.4 kmh WSW 6.9 mph11.1 kmh 31.78 in1076.2 mb - 0.00 in0.0 mm 0.00 in0.0 mm
03:55 AM 69.1°F20.6°C 68.2°F20.1°C 97% 3.5 mph SW5.6 kmh SW 3.5 mph5.6 kmh 31.78 in1076.2 mb - 0.00 in0.0 mm 0.00 in0.0 mm
04:00 AM 68.9°F20.5°C 68.0°F20.0°C 97% 2.3 mph S3.7 kmh S 2.3 mph3.7 kmh 31.78 in1076.2 mb - 0.00 in0.0 mm 0.00 in0.0 mm
04:10 AM 68.7°F20.4°C 68.1°F20.1°C 98% 3.5 mph SW5.6 kmh SW 4.6 mph7.4 kmh 31.78 in1076.2 mb - 0.00 in0.0 mm 0.00 in0.0 mm
04:15 AM 68.7°F20.4°C 68.1°F20.1°C 98% 3.5 mph W5.6 kmh W 5.8 mph9.3 kmh 31.78 in1076.2 mb - 0.00 in0.0 mm 0.00 in0.0 mm
04:20 AM 68.6°F20.3°C 68.0°F20.0°C 98% 4.6 mph SW7.4 kmh SW 5.8 mph9.3 kmh 31.78 in1076.2 mb - 0.00 in0.0 mm 0.00 in0.0 mm
04:25 AM 68.4°F20.2°C 67.8°F19.9°C 98% 3.5 mph SW5.6 kmh SW 3.5 mph5.6 kmh 31.78 in1076.2 mb - 0.00 in0.0 mm 0.00 in0.0 mm
04:30 AM 68.1°F20.1°C 67.5°F19.7°C 98% 2.3 mph SW3.7 kmh SW 2.3 mph3.7 kmh 31.78 in1076.2 mb - 0.00 in0.0 mm 0.00 in0.0 mm
04:35 AM 67.8°F19.9°C 67.5°F19.7°C 99% 2.3 mph SW3.7 kmh SW 3.5 mph5.6 kmh 31.78 in1076.2 mb - 0.00 in0.0 mm 0.00 in0.0 mm
04:40 AM 67.7°F19.8°C 67.4°F19.7°C 99% 3.5 mph SW5.6 kmh SW 5.8 mph9.3 kmh 31.78 in1076.2 mb - 0.00 in0.0 mm 0.00 in0.0 mm
04:45 AM 67.5°F19.7°C 67.2°F19.6°C 99% 4.6 mph SW7.4 kmh SW 5.8 mph9.3 kmh 31.78 in1076.2 mb - 0.00 in0.0 mm 0.00 in0.0 mm
04:50 AM 67.5°F19.7°C 67.2°F19.6°C 99% 3.5 mph SW5.6 kmh SW 5.8 mph9.3 kmh 31.78 in1076.2 mb - 0.00 in0.0 mm 0.00 in0.0 mm
04:55 AM 67.5°F19.7°C 67.2°F19.6°C 99% 3.5 mph SSW5.6 kmh SSW 3.5 mph5.6 kmh 31.78 in1076.2 mb - 0.00 in0.0 mm 0.00 in0.0 mm
05:00 AM 67.5°F19.7°C 67.2°F19.6°C 99% 1.2 mph NE1.9 kmh NE 2.3 mph3.7 kmh 31.78 in1076.2 mb - 0.00 in0.0 mm 0.00 in0.0 mm
05:10 AM 67.3°F19.6°C 67.0°F19.4°C 99% Calm Calm -- 31.78 in1076.2 mb - 0.00 in0.0 mm 0.00 in0.0 mm
05:15 AM 67.1°F19.5°C 66.8°F19.3°C 99% Calm Calm -- 31.78 in1076.2 mb - 0.00 in0.0 mm 0.00 in0.0 mm
05:20 AM 66.8°F19.3°C 66.5°F19.2°C 99% 5.8 mph SW9.3 kmh SW 5.8 mph9.3 kmh 31.78 in1076.2 mb - 0.00 in0.0 mm 0.00 in0.0 mm
05:25 AM 66.8°F19.3°C 66.5°F19.2°C 99% 3.5 mph SSW5.6 kmh SSW 3.5 mph5.6 kmh 31.78 in1076.2 mb - 0.00 in0.0 mm 0.00 in0.0 mm
05:30 AM 66.6°F19.2°C 66.3°F19.1°C 99% 3.5 mph SW5.6 kmh SW 4.6 mph7.4 kmh 31.78 in1076.2 mb - 0.00 in0.0 mm 0.00 in0.0 mm
05:35 AM 66.4°F19.1°C 66.1°F18.9°C 99% 3.5 mph S5.6 kmh S 3.5 mph5.6 kmh 31.78 in1076.2 mb - 0.00 in0.0 mm 0.00 in0.0 mm
05:40 AM 66.4°F19.1°C 66.1°F18.9°C 99% 4.6 mph SSW7.4 kmh SSW 4.6 mph7.4 kmh 31.78 in1076.2 mb - 0.00 in0.0 mm 0.00 in0.0 mm
05:45 AM 66.2°F19.0°C 65.9°F18.8°C 99% 2.3 mph ENE3.7 kmh ENE 2.3 mph3.7 kmh 31.78 in1076.2 mb - 0.00 in0.0 mm 0.00 in0.0 mm
05:50 AM 66.2°F19.0°C 65.9°F18.8°C 99% 3.5 mph SW5.6 kmh SW 4.6 mph7.4 kmh 31.78 in1076.2 mb - 0.00 in0.0 mm 0.00 in0.0 mm
05:55 AM 66.4°F19.1°C 66.1°F18.9°C 99% 3.5 mph SW5.6 kmh SW 4.6 mph7.4 kmh 31.78 in1076.2 mb - 0.00 in0.0 mm 0.00 in0.0 mm
06:00 AM 66.4°F19.1°C 66.1°F18.9°C 99% 2.3 mph SW3.7 kmh SW 3.5 mph5.6 kmh 31.78 in1076.2 mb - 0.00 in0.0 mm 0.00 in0.0 mm
06:10 AM 66.8°F19.3°C 66.5°F19.2°C 99% 2.3 mph SSW3.7 kmh SSW 3.5 mph5.6 kmh 31.78 in1076.2 mb - 0.00 in0.0 mm 0.00 in0.0 mm
06:15 AM 66.8°F19.3°C 66.5°F19.2°C 99% 4.6 mph SSW7.4 kmh SSW 4.6 mph7.4 kmh 31.78 in1076.2 mb - 0.00 in0.0 mm 0.00 in0.0 mm
06:20 AM 66.8°F19.3°C 66.5°F19.2°C 99% 2.3 mph SW3.7 kmh SW 3.5 mph5.6 kmh 31.78 in1076.2 mb - 0.00 in0.0 mm 0.00 in0.0 mm
06:25 AM 66.6°F19.2°C 66.3°F19.1°C 99% 3.5 mph S5.6 kmh S 5.8 mph9.3 kmh 31.78 in1076.2 mb - 0.00 in0.0 mm 0.00 in0.0 mm
06:30 AM 66.4°F19.1°C 66.1°F18.9°C 99% 4.6 mph SW7.4 kmh SW 5.8 mph9.3 kmh 31.78 in1076.2 mb - 0.00 in0.0 mm 0.00 in0.0 mm
06:35 AM 66.4°F19.1°C 66.1°F18.9°C 99% 4.6 mph SW7.4 kmh SW 4.6 mph7.4 kmh 31.78 in1076.2 mb - 0.00 in0.0 mm 0.00 in0.0 mm
06:40 AM 66.4°F19.1°C 66.1°F18.9°C 99% 4.6 mph SW7.4 kmh SW 5.8 mph9.3 kmh 31.78 in1076.2 mb - 0.00 in0.0 mm 0.00 in0.0 mm
06:45 AM 66.4°F19.1°C 66.1°F18.9°C 99% 4.6 mph SW7.4 kmh SW 5.8 mph9.3 kmh 31.78 in1076.2 mb - 0.00 in0.0 mm 0.00 in0.0 mm
06:50 AM 66.4°F19.1°C 66.1°F18.9°C 99% 4.6 mph SW7.4 kmh SW 4.6 mph7.4 kmh 31.78 in1076.2 mb - 0.00 in0.0 mm 0.00 in0.0 mm
06:55 AM 66.4°F19.1°C 66.1°F18.9°C 99% 4.6 mph SW7.4 kmh SW 5.8 mph9.3 kmh 31.78 in1076.2 mb - 0.00 in0.0 mm 0.00 in0.0 mm
07:00 AM 66.4°F19.1°C 66.1°F18.9°C 99% 3.5 mph SW5.6 kmh SW 3.5 mph5.6 kmh 31.78 in1076.2 mb - 0.00 in0.0 mm 0.00 in0.0 mm
07:10 AM 66.4°F19.1°C 66.1°F18.9°C 99% 3.5 mph S5.6 kmh S 4.6 mph7.4 kmh 31.78 in1076.2 mb - 0.00 in0.0 mm 0.00 in0.0 mm
07:15 AM 66.4°F19.1°C 66.1°F18.9°C 99% 3.5 mph S5.6 kmh S 4.6 mph7.4 kmh 31.78 in1076.2 mb - 0.00 in0.0 mm 0.00 in0.0 mm
07:20 AM 66.6°F19.2°C 66.3°F19.1°C 99% 3.5 mph S5.6 kmh S 3.5 mph5.6 kmh 31.78 in1076.2 mb - 0.00 in0.0 mm 0.00 in0.0 mm
07:25 AM 66.4°F19.1°C 66.1°F18.9°C 99% 4.6 mph S7.4 kmh S 4.6 mph7.4 kmh 31.78 in1076.2 mb - 0.00 in0.0 mm 0.00 in0.0 mm
07:30 AM 66.4°F19.1°C 66.1°F18.9°C 99% 4.6 mph SW7.4 kmh SW 5.8 mph9.3 kmh 31.78 in1076.2 mb - 0.00 in0.0 mm 0.00 in0.0 mm
07:35 AM 66.6°F19.2°C 66.3°F19.1°C 99% 4.6 mph SW7.4 kmh SW 6.9 mph11.1 kmh 31.78 in1076.2 mb - 0.00 in0.0 mm 0.00 in0.0 mm
07:40 AM 66.6°F19.2°C 66.3°F19.1°C 99% 3.5 mph SW5.6 kmh SW 4.6 mph7.4 kmh 31.78 in1076.2 mb - 0.00 in0.0 mm 0.00 in0.0 mm
07:45 AM 66.4°F19.1°C 66.1°F18.9°C 99% 3.5 mph SW5.6 kmh SW 4.6 mph7.4 kmh 31.78 in1076.2 mb - 0.00 in0.0 mm 0.00 in0.0 mm
07:50 AM 66.4°F19.1°C 66.1°F18.9°C 99% 3.5 mph SW5.6 kmh SW 4.6 mph7.4 kmh 31.78 in1076.2 mb - 0.00 in0.0 mm 0.00 in0.0 mm
07:55 AM 66.7°F19.3°C 66.4°F19.1°C 99% 3.5 mph SW5.6 kmh SW 4.6 mph7.4 kmh 31.78 in1076.2 mb - 0.00 in0.0 mm 0.00 in0.0 mm
08:00 AM 66.9°F19.4°C 66.6°F19.2°C 99% 3.5 mph SW5.6 kmh SW 5.8 mph9.3 kmh 31.78 in1076.2 mb - 0.00 in0.0 mm 0.00 in0.0 mm
08:10 AM 67.5°F19.7°C 67.2°F19.6°C 99% 3.5 mph SW5.6 kmh SW 4.6 mph7.4 kmh 31.78 in1076.2 mb - 0.00 in0.0 mm 0.00 in0.0 mm
08:15 AM 67.8°F19.9°C 67.5°F19.7°C 99% 3.5 mph SW5.6 kmh SW 5.8 mph9.3 kmh 31.78 in1076.2 mb - 0.00 in0.0 mm 0.00 in0.0 mm
08:20 AM 67.8°F19.9°C 67.5°F19.7°C 99% 4.6 mph SW7.4 kmh SW 4.6 mph7.4 kmh 31.78 in1076.2 mb - 0.00 in0.0 mm 0.00 in0.0 mm
08:25 AM 68.0°F20.0°C 67.7°F19.8°C 99% 4.6 mph SW7.4 kmh SW 4.6 mph7.4 kmh 31.78 in1076.2 mb - 0.00 in0.0 mm 0.00 in0.0 mm
08:30 AM 68.6°F20.3°C 68.0°F20.0°C 98% 4.6 mph WSW7.4 kmh WSW 5.8 mph9.3 kmh 31.78 in1076.2 mb - 0.00 in0.0 mm 0.00 in0.0 mm
08:35 AM 68.6°F20.3°C 68.0°F20.0°C 98% 5.8 mph SW9.3 kmh SW 6.9 mph11.1 kmh 31.78 in1076.2 mb - 0.00 in0.0 mm 0.00 in0.0 mm
08:40 AM 68.4°F20.2°C 67.8°F19.9°C 98% 4.6 mph SSW7.4 kmh SSW 4.6 mph7.4 kmh 31.78 in1076.2 mb - 0.00 in0.0 mm 0.00 in0.0 mm
08:45 AM 68.7°F20.4°C 67.8°F19.9°C 97% 4.6 mph SW7.4 kmh SW 5.8 mph9.3 kmh 31.78 in1076.2 mb - 0.00 in0.0 mm 0.00 in0.0 mm
08:50 AM 69.1°F20.6°C 68.2°F20.1°C 97% 4.6 mph SW7.4 kmh SW 4.6 mph7.4 kmh 31.78 in1076.2 mb - 0.00 in0.0 mm 0.00 in0.0 mm
08:55 AM 69.6°F20.9°C 68.4°F20.2°C 96% 3.5 mph SW5.6 kmh SW 5.8 mph9.3 kmh 31.78 in1076.2 mb - 0.00 in0.0 mm 0.00 in0.0 mm
09:00 AM 70.0°F21.1°C 68.5°F20.3°C 95% 5.8 mph SW9.3 kmh SW 5.8 mph9.3 kmh 31.78 in1076.2 mb - 0.00 in0.0 mm 0.00 in0.0 mm
09:10 AM 69.7°F20.9°C 68.2°F20.1°C 95% 4.6 mph SW7.4 kmh SW 5.8 mph9.3 kmh 31.78 in1076.2 mb - 0.00 in0.0 mm 0.00 in0.0 mm
09:15 AM 69.6°F20.9°C 68.1°F20.1°C 95% 4.6 mph SW7.4 kmh SW 5.8 mph9.3 kmh 31.78 in1076.2 mb - 0.00 in0.0 mm 0.00 in0.0 mm
09:20 AM 69.8°F21.0°C 68.0°F20.0°C 94% 4.6 mph SW7.4 kmh SW 5.8 mph9.3 kmh 31.78 in1076.2 mb - 0.00 in0.0 mm 0.00 in0.0 mm
09:25 AM 69.5°F20.8°C 67.7°F19.8°C 94% 4.6 mph SW7.4 kmh SW 5.8 mph9.3 kmh 31.78 in1076.2 mb - 0.00 in0.0 mm 0.00 in0.0 mm
09:30 AM 69.8°F21.0°C 68.0°F20.0°C 94% 5.8 mph SW9.3 kmh SW 5.8 mph9.3 kmh 31.78 in1076.2 mb - 0.00 in0.0 mm 0.00 in0.0 mm
09:35 AM 69.5°F20.8°C 67.7°F19.8°C 94% 5.8 mph SSW9.3 kmh SSW 5.8 mph9.3 kmh 31.78 in1076.2 mb - 0.00 in0.0 mm 0.00 in0.0 mm
09:40 AM 69.8°F21.0°C 68.0°F20.0°C 94% 4.6 mph SW7.4 kmh SW 5.8 mph9.3 kmh 31.78 in1076.2 mb - 0.00 in0.0 mm 0.00 in0.0 mm
09:45 AM 69.8°F21.0°C 67.7°F19.8°C 93% 5.8 mph SSW9.3 kmh SSW 5.8 mph9.3 kmh 31.78 in1076.2 mb - 0.00 in0.0 mm 0.00 in0.0 mm
09:50 AM 69.8°F21.0°C 67.7°F19.8°C 93% 4.6 mph SW7.4 kmh SW 5.8 mph9.3 kmh 31.78 in1076.2 mb - 0.00 in0.0 mm 0.00 in0.0 mm
09:55 AM 70.2°F21.2°C 68.1°F20.1°C 93% 6.9 mph SSW11.1 kmh SSW 8.1 mph13.0 kmh 31.78 in1076.2 mb - 0.00 in0.0 mm 0.00 in0.0 mm
10:00 AM 70.4°F21.3°C 68.3°F20.2°C 93% 8.1 mph SW13.0 kmh SW 9.2 mph14.8 kmh 31.78 in1076.2 mb - 0.00 in0.0 mm 0.00 in0.0 mm
10:10 AM 70.2°F21.2°C 68.1°F20.1°C 93% 6.9 mph SW11.1 kmh SW 8.1 mph13.0 kmh 31.78 in1076.2 mb - 0.00 in0.0 mm 0.00 in0.0 mm
10:15 AM 69.6°F20.9°C 67.5°F19.7°C 93% 5.8 mph SW9.3 kmh SW 6.9 mph11.1 kmh 31.78 in1076.2 mb - 0.00 in0.0 mm 0.00 in0.0 mm
10:20 AM 69.6°F20.9°C 67.8°F19.9°C 94% 4.6 mph SW7.4 kmh SW 5.8 mph9.3 kmh 31.78 in1076.2 mb - 0.00 in0.0 mm 0.00 in0.0 mm
10:25 AM 69.1°F20.6°C 67.6°F19.8°C 95% 5.8 mph SW9.3 kmh SW 5.8 mph9.3 kmh 31.78 in1076.2 mb - 0.00 in0.0 mm 0.00 in0.0 mm
10:30 AM 70.1°F21.2°C 68.0°F20.0°C 93% 6.9 mph SW11.1 kmh SW 6.9 mph11.1 kmh 31.78 in1076.2 mb - 0.00 in0.0 mm 0.00 in0.0 mm
10:35 AM 70.2°F21.2°C 68.1°F20.1°C 93% 5.8 mph SW9.3 kmh SW 5.8 mph9.3 kmh 31.78 in1076.2 mb - 0.00 in0.0 mm 0.00 in0.0 mm
10:40 AM 70.7°F21.5°C 68.2°F20.1°C 92% 6.9 mph SW11.1 kmh SW 8.1 mph13.0 kmh 31.78 in1076.2 mb - 0.00 in0.0 mm 0.00 in0.0 mm
10:45 AM 70.4°F21.3°C 68.3°F20.2°C 93% 4.6 mph SSW7.4 kmh SSW 5.8 mph9.3 kmh 31.78 in1076.2 mb - 0.00 in0.0 mm 0.00 in0.0 mm
10:50 AM 71.5°F21.9°C 68.7°F20.4°C 91% 4.6 mph SSW7.4 kmh SSW 5.8 mph9.3 kmh 31.78 in1076.2 mb - 0.00 in0.0 mm 0.00 in0.0 mm
10:55 AM 72.2°F22.3°C 68.8°F20.4°C 89% 4.6 mph SW7.4 kmh SW 5.8 mph9.3 kmh 31.78 in1076.2 mb - 0.00 in0.0 mm 0.00 in0.0 mm
11:00 AM 71.8°F22.1°C 68.7°F20.4°C 90% 5.8 mph SSW9.3 kmh SSW 5.8 mph9.3 kmh 31.78 in1076.2 mb - 0.00 in0.0 mm 0.00 in0.0 mm
11:10 AM 71.6°F22.0°C 68.6°F20.3°C 90% 5.8 mph WSW9.3 kmh WSW 8.1 mph13.0 kmh 31.78 in1076.2 mb - 0.00 in0.0 mm 0.00 in0.0 mm
11:15 AM 71.8°F22.1°C 68.4°F20.2°C 89% 5.8 mph SW9.3 kmh SW 6.9 mph11.1 kmh 31.78 in1076.2 mb - 0.00 in0.0 mm 0.00 in0.0 mm
11:20 AM 71.4°F21.9°C 68.3°F20.2°C 90% 4.6 mph SW7.4 kmh SW 5.8 mph9.3 kmh 31.78 in1076.2 mb - 0.00 in0.0 mm 0.00 in0.0 mm
11:25 AM 71.4°F21.9°C 68.3°F20.2°C 90% 5.8 mph SSW9.3 kmh SSW 6.9 mph11.1 kmh 31.78 in1076.2 mb - 0.00 in0.0 mm 0.00 in0.0 mm
11:30 AM 70.9°F21.6°C 68.1°F20.1°C 91% 5.8 mph SSW9.3 kmh SSW 5.8 mph9.3 kmh 31.78 in1076.2 mb - 0.00 in0.0 mm 0.00 in0.0 mm
11:35 AM 70.5°F21.4°C 68.0°F20.0°C 92% 4.6 mph WSW7.4 kmh WSW 5.8 mph9.3 kmh 31.78 in1076.2 mb - 0.00 in0.0 mm 0.00 in0.0 mm
11:40 AM 71.3°F21.8°C 68.5°F20.3°C 91% 5.8 mph SW9.3 kmh SW 5.8 mph9.3 kmh 31.78 in1076.2 mb - 0.00 in0.0 mm 0.00 in0.0 mm
11:45 AM 72.1°F22.3°C 68.3°F20.2°C 88% 5.8 mph SW9.3 kmh SW 6.9 mph11.1 kmh 31.78 in1076.2 mb - 0.00 in0.0 mm 0.00 in0.0 mm
11:50 AM 71.2°F21.8°C 68.2°F20.1°C 90% 5.8 mph SW9.3 kmh SW 5.8 mph9.3 kmh 31.78 in1076.2 mb - 0.00 in0.0 mm 0.00 in0.0 mm
11:55 AM 71.0°F21.7°C 68.3°F20.2°C 91% 5.8 mph WSW9.3 kmh WSW 5.8 mph9.3 kmh 31.82 in1077.5 mb - 0.00 in0.0 mm 0.00 in0.0 mm
12:00 PM 71.4°F21.9°C 68.3°F20.2°C 90% 4.6 mph SW7.4 kmh SW 6.9 mph11.1 kmh 31.82 in1077.5 mb - 0.00 in0.0 mm 0.00 in0.0 mm
12:10 PM 71.8°F22.1°C 68.4°F20.2°C 89% 5.8 mph WSW9.3 kmh WSW 6.9 mph11.1 kmh 31.73 in1074.5 mb - 0.00 in0.0 mm 0.00 in0.0 mm
12:15 PM 71.2°F21.8°C 68.1°F20.1°C 90% 5.8 mph SSW9.3 kmh SSW 8.1 mph13.0 kmh 31.73 in1074.5 mb - 0.00 in0.0 mm 0.00 in0.0 mm
12:20 PM 71.1°F21.7°C 68.0°F20.0°C 90% 5.8 mph SW9.3 kmh SW 5.8 mph9.3 kmh 31.65 in1071.8 mb - 0.00 in0.0 mm 0.00 in0.0 mm
12:25 PM 70.9°F21.6°C 68.1°F20.1°C 91% 4.6 mph WSW7.4 kmh WSW 5.8 mph9.3 kmh 31.65 in1071.8 mb - 0.00 in0.0 mm 0.00 in0.0 mm
12:30 PM 70.9°F21.6°C 68.1°F20.1°C 91% 5.8 mph SW9.3 kmh SW 8.1 mph13.0 kmh 31.56 in1068.7 mb - 0.00 in0.0 mm 0.00 in0.0 mm
12:35 PM 70.9°F21.6°C 68.1°F20.1°C 91% 5.8 mph SW9.3 kmh SW 5.8 mph9.3 kmh 31.56 in1068.7 mb - 0.00 in0.0 mm 0.00 in0.0 mm
12:40 PM 71.7°F22.1°C 68.3°F20.2°C 89% 4.6 mph SW7.4 kmh SW 5.8 mph9.3 kmh 31.56 in1068.7 mb - 0.00 in0.0 mm 0.00 in0.0 mm
12:45 PM 72.4°F22.4°C 68.3°F20.2°C 87% 4.6 mph SW7.4 kmh SW 5.8 mph9.3 kmh 31.49 in1066.4 mb - 0.00 in0.0 mm 0.00 in0.0 mm
12:50 PM 72.9°F22.7°C 68.8°F20.4°C 87% 5.8 mph SSW9.3 kmh SSW 5.8 mph9.3 kmh 31.49 in1066.4 mb - 0.00 in0.0 mm 0.00 in0.0 mm
12:55 PM 73.2°F22.9°C 69.1°F20.6°C 87% 4.6 mph WSW7.4 kmh WSW 5.8 mph9.3 kmh 31.38 in1062.6 mb - 0.00 in0.0 mm 0.00 in0.0 mm
01:00 PM 73.6°F23.1°C 69.5°F20.8°C 87% 4.6 mph SW7.4 kmh SW 5.8 mph9.3 kmh 31.38 in1062.6 mb - 0.00 in0.0 mm 0.00 in0.0 mm
01:10 PM 73.8°F23.2°C 69.3°F20.7°C 86% 4.6 mph SW7.4 kmh SW 4.6 mph7.4 kmh 31.30 in1059.9 mb - 0.00 in0.0 mm 0.00 in0.0 mm
01:15 PM 72.7°F22.6°C 69.0°F20.6°C 88% 5.8 mph S9.3 kmh S 5.8 mph9.3 kmh 31.30 in1059.9 mb - 0.00 in0.0 mm 0.00 in0.0 mm
01:20 PM 73.2°F22.9°C 69.1°F20.6°C 87% 4.6 mph WSW7.4 kmh WSW 5.8 mph9.3 kmh 31.20 in1056.6 mb - 0.00 in0.0 mm 0.00 in0.0 mm
01:25 PM 73.6°F23.1°C 69.1°F20.6°C 86% 4.6 mph SSW7.4 kmh SSW 8.1 mph13.0 kmh 31.20 in1056.6 mb - 0.00 in0.0 mm 0.00 in0.0 mm
01:30 PM 73.1°F22.8°C 68.9°F20.5°C 87% 4.6 mph SW7.4 kmh SW 5.8 mph9.3 kmh 31.09 in1052.8 mb - 0.00 in0.0 mm 0.00 in0.0 mm
01:35 PM 71.7°F22.1°C 68.3°F20.2°C 89% 5.8 mph SW9.3 kmh SW 6.9 mph11.1 kmh 31.09 in1052.8 mb - 0.00 in0.0 mm 0.00 in0.0 mm
01:40 PM 70.6°F21.4°C 68.2°F20.1°C 92% 8.1 mph SW13.0 kmh SW 9.2 mph14.8 kmh 31.07 in1052.2 mb - 0.00 in0.0 mm 0.00 in0.0 mm
01:45 PM 70.2°F21.2°C 68.4°F20.2°C 94% 5.8 mph SSW9.3 kmh SSW 5.8 mph9.3 kmh 31.01 in1050.1 mb - 0.00 in0.0 mm 0.00 in0.0 mm
01:50 PM 70.1°F21.2°C 68.3°F20.2°C 94% 4.6 mph WSW7.4 kmh WSW 6.9 mph11.1 kmh 31.01 in1050.1 mb - 0.00 in0.0 mm 0.00 in0.0 mm
01:55 PM 69.5°F20.8°C 68.3°F20.2°C 96% 5.8 mph SW9.3 kmh SW 6.9 mph11.1 kmh 31.00 in1049.8 mb - 0.00 in0.0 mm 0.00 in0.0 mm
02:00 PM 70.0°F21.1°C 69.7°F20.9°C 99% 2.3 mph WSW3.7 kmh WSW 3.5 mph5.6 kmh 31.00 in1049.8 mb - 0.00 in0.0 mm 0.00 in0.0 mm
02:10 PM 69.3°F20.7°C 69.0°F20.6°C 99% 2.3 mph SSW3.7 kmh SSW 4.6 mph7.4 kmh 30.98 in1049.1 mb - 0.02 in0.5 mm 0.02 in0.5 mm
02:15 PM 70.5°F21.4°C 70.2°F21.2°C 99% 1.2 mph SSE1.9 kmh SSE 3.5 mph5.6 kmh 30.98 in1049.1 mb - 0.02 in0.5 mm 0.02 in0.5 mm
02:20 PM 70.8°F21.6°C 69.6°F20.9°C 96% 5.8 mph SW9.3 kmh SW 5.8 mph9.3 kmh 30.94 in1047.7 mb - 0.02 in0.5 mm 0.02 in0.5 mm
02:25 PM 70.4°F21.3°C 69.5°F20.8°C 97% 4.6 mph SW7.4 kmh SW 4.6 mph7.4 kmh 30.94 in1047.7 mb - 0.02 in0.5 mm 0.02 in0.5 mm
02:30 PM 70.7°F21.5°C 70.4°F21.3°C 99% 2.3 mph SW3.7 kmh SW 3.5 mph5.6 kmh 30.87 in1045.4 mb - 0.02 in0.5 mm 0.02 in0.5 mm
02:35 PM 71.3°F21.8°C 70.7°F21.5°C 98% 1.2 mph ESE1.9 kmh ESE 2.3 mph3.7 kmh 30.87 in1045.4 mb - 0.03 in0.8 mm 0.03 in0.8 mm
02:40 PM 71.7°F22.1°C 70.2°F21.2°C 95% 2.3 mph NW3.7 kmh NW 4.6 mph7.4 kmh 30.84 in1044.4 mb - 0.03 in0.8 mm 0.03 in0.8 mm
02:45 PM 71.8°F22.1°C 70.0°F21.1°C 94% 4.6 mph SW7.4 kmh SW 5.8 mph9.3 kmh 30.82 in1043.7 mb - 0.03 in0.8 mm 0.03 in0.8 mm
02:50 PM 71.6°F22.0°C 70.1°F21.2°C 95% 3.5 mph NW5.6 kmh NW 4.6 mph7.4 kmh 30.82 in1043.7 mb - 0.03 in0.8 mm 0.03 in0.8 mm
02:55 PM 70.6°F21.4°C 69.1°F20.6°C 95% 4.6 mph WSW7.4 kmh WSW 5.8 mph9.3 kmh 30.78 in1042.3 mb - 0.03 in0.8 mm 0.03 in0.8 mm
03:00 PM 70.7°F21.5°C 69.2°F20.7°C 95% 3.5 mph WSW5.6 kmh WSW 4.6 mph7.4 kmh 30.78 in1042.3 mb - 0.03 in0.8 mm 0.03 in0.8 mm
03:10 PM 71.0°F21.7°C 69.5°F20.8°C 95% 2.3 mph ESE3.7 kmh ESE 2.3 mph3.7 kmh 30.74 in1041.0 mb - 0.01 in0.3 mm 0.03 in0.8 mm
03:15 PM 71.3°F21.8°C 69.8°F21.0°C 95% 4.6 mph N7.4 kmh N 5.8 mph9.3 kmh 30.74 in1041.0 mb - 0.01 in0.3 mm 0.03 in0.8 mm
03:20 PM 72.5°F22.5°C 70.7°F21.5°C 94% 2.3 mph NE3.7 kmh NE 3.5 mph5.6 kmh 30.72 in1040.3 mb - 0.01 in0.3 mm 0.03 in0.8 mm
03:25 PM 73.1°F22.8°C 71.3°F21.8°C 94% 2.3 mph ESE3.7 kmh ESE 1.2 mph1.9 kmh 30.72 in1040.3 mb - 0.01 in0.3 mm 0.03 in0.8 mm
03:30 PM 73.3°F22.9°C 71.5°F21.9°C 94% Calm Calm -- 30.69 in1039.3 mb - 0.01 in0.3 mm 0.03 in0.8 mm
03:35 PM 74.1°F23.4°C 71.9°F22.2°C 93% Calm Calm -- 30.69 in1039.3 mb - 0.01 in0.3 mm 0.03 in0.8 mm
03:40 PM 75.4°F24.1°C 72.2°F22.3°C 90% 2.3 mph SSW3.7 kmh SSW 2.3 mph3.7 kmh 30.68 in1038.9 mb - 0.00 in0.0 mm 0.03 in0.8 mm
03:45 PM 74.9°F23.8°C 72.1°F22.3°C 91% 2.3 mph S3.7 kmh S 3.5 mph5.6 kmh 30.67 in1038.6 mb - 0.00 in0.0 mm 0.03 in0.8 mm
03:50 PM 73.1°F22.8°C 71.3°F21.8°C 94% 2.3 mph SSW3.7 kmh SSW 2.3 mph3.7 kmh 30.67 in1038.6 mb - 0.00 in0.0 mm 0.03 in0.8 mm
03:55 PM 72.1°F22.3°C 70.2°F21.2°C 94% 3.5 mph SSW5.6 kmh SSW 4.6 mph7.4 kmh 30.66 in1038.3 mb - 0.00 in0.0 mm 0.03 in0.8 mm
04:00 PM 72.2°F22.3°C 70.4°F21.3°C 94% 3.5 mph WSW5.6 kmh WSW 4.6 mph7.4 kmh 30.66 in1038.3 mb - 0.00 in0.0 mm 0.03 in0.8 mm
04:10 PM 72.7°F22.6°C 70.2°F21.2°C 92% 4.6 mph W7.4 kmh W 5.8 mph9.3 kmh 30.62 in1036.9 mb - 0.00 in0.0 mm 0.03 in0.8 mm
04:15 PM 72.0°F22.2°C 70.1°F21.2°C 94% 3.5 mph SW5.6 kmh SW 4.6 mph7.4 kmh 30.62 in1036.9 mb - 0.00 in0.0 mm 0.03 in0.8 mm
04:20 PM 71.9°F22.2°C 70.4°F21.3°C 95% 2.3 mph SW3.7 kmh SW 3.5 mph5.6 kmh 30.57 in1035.2 mb - 0.00 in0.0 mm 0.03 in0.8 mm
04:25 PM 72.3°F22.4°C 70.5°F21.4°C 94% 3.5 mph SW5.6 kmh SW 4.6 mph7.4 kmh 30.57 in1035.2 mb - 0.00 in0.0 mm 0.03 in0.8 mm
04:30 PM 71.5°F21.9°C 69.7°F20.9°C 94% 2.3 mph WSW3.7 kmh WSW 3.5 mph5.6 kmh 30.52 in1033.5 mb - 0.00 in0.0 mm 0.03 in0.8 mm
04:35 PM 71.6°F22.0°C 69.8°F21.0°C 94% 3.5 mph WSW5.6 kmh WSW 3.5 mph5.6 kmh 30.52 in1033.5 mb - 0.00 in0.0 mm 0.03 in0.8 mm
04:40 PM 71.8°F22.1°C 70.0°F21.1°C 94% 2.3 mph SW3.7 kmh SW 3.5 mph5.6 kmh 30.51 in1033.2 mb - 0.00 in0.0 mm 0.03 in0.8 mm
04:45 PM 72.5°F22.5°C 70.0°F21.1°C 92% 4.6 mph SW7.4 kmh SW 5.8 mph9.3 kmh 30.49 in1032.5 mb - 0.00 in0.0 mm 0.03 in0.8 mm
04:50 PM 73.4°F23.0°C 70.3°F21.3°C 90% 4.6 mph S7.4 kmh S 4.6 mph7.4 kmh 30.49 in1032.5 mb - 0.00 in0.0 mm 0.03 in0.8 mm
04:55 PM 73.3°F22.9°C 70.2°F21.2°C 90% 4.6 mph SW7.4 kmh SW 4.6 mph7.4 kmh 30.45 in1031.2 mb - 0.00 in0.0 mm 0.03 in0.8 mm
05:00 PM 73.4°F23.0°C 70.3°F21.3°C 90% 3.5 mph WSW5.6 kmh WSW 4.6 mph7.4 kmh 30.45 in1031.2 mb - 0.00 in0.0 mm 0.03 in0.8 mm
05:10 PM 72.9°F22.7°C 69.8°F21.0°C 90% 3.5 mph SW5.6 kmh SW 4.6 mph7.4 kmh 30.34 in1027.4 mb - 0.00 in0.0 mm 0.03 in0.8 mm
05:15 PM 73.4°F23.0°C 69.9°F21.1°C 89% 3.5 mph SW5.6 kmh SW 4.6 mph7.4 kmh 30.34 in1027.4 mb - 0.00 in0.0 mm 0.03 in0.8 mm
05:20 PM 73.1°F22.8°C 70.0°F21.1°C 90% 3.5 mph SW5.6 kmh SW 4.6 mph7.4 kmh 30.27 in1025.1 mb - 0.00 in0.0 mm 0.03 in0.8 mm
05:25 PM 71.4°F21.9°C 68.9°F20.5°C 92% 3.5 mph SW5.6 kmh SW 4.6 mph7.4 kmh 30.27 in1025.1 mb - 0.00 in0.0 mm 0.03 in0.8 mm
05:30 PM 70.7°F21.5°C 68.9°F20.5°C 94% 4.6 mph SW7.4 kmh SW 5.8 mph9.3 kmh 30.22 in1023.4 mb - 0.00 in0.0 mm 0.03 in0.8 mm
05:35 PM 71.3°F21.8°C 69.2°F20.7°C 93% 5.8 mph SW9.3 kmh SW 5.8 mph9.3 kmh 30.22 in1023.4 mb - 0.00 in0.0 mm 0.03 in0.8 mm
05:40 PM 71.8°F22.1°C 69.4°F20.8°C 92% 4.6 mph SW7.4 kmh SW 5.8 mph9.3 kmh 30.22 in1023.4 mb - 0.00 in0.0 mm 0.03 in0.8 mm
05:45 PM 71.9°F22.2°C 69.1°F20.6°C 91% 5.8 mph SW9.3 kmh SW 5.8 mph9.3 kmh 30.20 in1022.7 mb - 0.00 in0.0 mm 0.03 in0.8 mm
05:50 PM 71.6°F22.0°C 69.4°F20.8°C 93% 4.6 mph SW7.4 kmh SW 4.6 mph7.4 kmh 30.20 in1022.7 mb - 0.00 in0.0 mm 0.03 in0.8 mm
05:55 PM 72.0°F22.2°C 69.5°F20.8°C 92% 3.5 mph SW5.6 kmh SW 3.5 mph5.6 kmh 30.18 in1022.0 mb - 0.00 in0.0 mm 0.03 in0.8 mm
06:00 PM 72.0°F22.2°C 69.5°F20.8°C 92% 3.5 mph SW5.6 kmh SW 4.6 mph7.4 kmh 30.18 in1022.0 mb - 0.00 in0.0 mm 0.03 in0.8 mm
06:10 PM 70.6°F21.4°C 68.8°F20.4°C 94% 3.5 mph SW5.6 kmh SW 4.6 mph7.4 kmh 30.11 in1019.6 mb - 0.00 in0.0 mm 0.03 in0.8 mm
06:15 PM 70.9°F21.6°C 68.8°F20.4°C 93% 4.6 mph WSW7.4 kmh WSW 4.6 mph7.4 kmh 30.11 in1019.6 mb - 0.00 in0.0 mm 0.03 in0.8 mm
06:20 PM 70.7°F21.5°C 68.6°F20.3°C 93% 3.5 mph SW5.6 kmh SW 3.5 mph5.6 kmh 30.10 in1019.3 mb - 0.00 in0.0 mm 0.03 in0.8 mm
06:25 PM 70.5°F21.4°C 68.7°F20.4°C 94% 3.5 mph SW5.6 kmh SW 4.6 mph7.4 kmh 30.10 in1019.3 mb - 0.00 in0.0 mm 0.03 in0.8 mm
06:30 PM 70.6°F21.4°C 68.8°F20.4°C 94% 4.6 mph SW7.4 kmh SW 4.6 mph7.4 kmh 30.10 in1019.3 mb - 0.00 in0.0 mm 0.03 in0.8 mm
06:35 PM 70.5°F21.4°C 68.7°F20.4°C 94% 4.6 mph SW7.4 kmh SW 4.6 mph7.4 kmh 30.10 in1019.3 mb - 0.00 in0.0 mm 0.03 in0.8 mm
06:40 PM 70.5°F21.4°C 68.7°F20.4°C 94% 4.6 mph SSW7.4 kmh SSW 5.8 mph9.3 kmh 30.11 in1019.6 mb - 0.00 in0.0 mm 0.03 in0.8 mm
06:45 PM 70.4°F21.3°C 68.6°F20.3°C 94% 3.5 mph SW5.6 kmh SW 5.8 mph9.3 kmh 30.13 in1020.3 mb - 0.00 in0.0 mm 0.03 in0.8 mm
06:50 PM 70.0°F21.1°C 68.5°F20.3°C 95% 3.5 mph WSW5.6 kmh WSW 4.6 mph7.4 kmh 30.13 in1020.3 mb - 0.00 in0.0 mm 0.03 in0.8 mm
06:55 PM 69.6°F20.9°C 68.4°F20.2°C 96% 3.5 mph SW5.6 kmh SW 4.6 mph7.4 kmh 30.15 in1021.0 mb - 0.00 in0.0 mm 0.03 in0.8 mm
07:00 PM 70.0°F21.1°C 68.5°F20.3°C 95% 4.6 mph SW7.4 kmh SW 4.6 mph7.4 kmh 30.15 in1021.0 mb - 0.00 in0.0 mm 0.03 in0.8 mm
07:10 PM 70.0°F21.1°C 68.5°F20.3°C 95% 3.5 mph WSW5.6 kmh WSW 3.5 mph5.6 kmh 30.16 in1021.3 mb - 0.00 in0.0 mm 0.03 in0.8 mm
07:15 PM 69.8°F21.0°C 68.3°F20.2°C 95% 3.5 mph SW5.6 kmh SW 3.5 mph5.6 kmh 30.16 in1021.3 mb - 0.00 in0.0 mm 0.03 in0.8 mm
07:20 PM 69.6°F20.9°C 68.1°F20.1°C 95% 3.5 mph SSW5.6 kmh SSW 3.5 mph5.6 kmh 30.17 in1021.7 mb - 0.00 in0.0 mm 0.03 in0.8 mm
07:25 PM 69.5°F20.8°C 68.0°F20.0°C 95% 3.5 mph SW5.6 kmh SW 4.6 mph7.4 kmh 30.17 in1021.7 mb - 0.00 in0.0 mm 0.03 in0.8 mm
07:30 PM 69.5°F20.8°C 68.0°F20.0°C 95% 2.3 mph SW3.7 kmh SW 2.3 mph3.7 kmh 30.20 in1022.7 mb - 0.00 in0.0 mm 0.03 in0.8 mm
07:35 PM 69.8°F21.0°C 68.0°F20.0°C 94% 3.5 mph SSW5.6 kmh SSW 4.6 mph7.4 kmh 30.20 in1022.7 mb - 0.00 in0.0 mm 0.03 in0.8 mm
07:40 PM 69.8°F21.0°C 68.0°F20.0°C 94% 4.6 mph SW7.4 kmh SW 4.6 mph7.4 kmh 30.20 in1022.7 mb - 0.00 in0.0 mm 0.03 in0.8 mm
07:45 PM 69.6°F20.9°C 68.1°F20.1°C 95% 4.6 mph SSW7.4 kmh SSW 4.6 mph7.4 kmh 30.24 in1024.0 mb - 0.00 in0.0 mm 0.03 in0.8 mm
07:50 PM 69.5°F20.8°C 68.0°F20.0°C 95% 3.5 mph SW5.6 kmh SW 4.6 mph7.4 kmh 30.24 in1024.0 mb - 0.00 in0.0 mm 0.03 in0.8 mm
07:55 PM 69.3°F20.7°C 67.8°F19.9°C 95% 4.6 mph SW7.4 kmh SW 5.8 mph9.3 kmh 30.27 in1025.1 mb - 0.00 in0.0 mm 0.03 in0.8 mm
08:00 PM 69.0°F20.6°C 67.9°F19.9°C 96% 4.6 mph SSW7.4 kmh SSW 5.8 mph9.3 kmh 30.27 in1025.1 mb - 0.00 in0.0 mm 0.03 in0.8 mm
08:10 PM 69.4°F20.8°C 67.9°F19.9°C 95% 2.3 mph S3.7 kmh S 4.6 mph7.4 kmh 30.27 in1025.1 mb - 0.00 in0.0 mm 0.03 in0.8 mm
08:15 PM 69.2°F20.7°C 67.7°F19.8°C 95% 1.2 mph SSE1.9 kmh SSE 3.5 mph5.6 kmh 30.27 in1025.1 mb - 0.00 in0.0 mm 0.03 in0.8 mm
08:20 PM 69.1°F20.6°C 67.6°F19.8°C 95% 2.3 mph ESE3.7 kmh ESE 3.5 mph5.6 kmh 30.30 in1026.1 mb - 0.00 in0.0 mm 0.03 in0.8 mm
08:25 PM 69.1°F20.6°C 67.6°F19.8°C 95% Calm Calm 2.3 mph3.7 kmh 30.30 in1026.1 mb - 0.00 in0.0 mm 0.03 in0.8 mm
08:30 PM 68.9°F20.5°C 67.4°F19.7°C 95% 3.5 mph S5.6 kmh S 5.8 mph9.3 kmh 30.33 in1027.1 mb - 0.00 in0.0 mm 0.03 in0.8 mm
08:35 PM 68.5°F20.3°C 67.6°F19.8°C 97% 3.5 mph S5.6 kmh S 4.6 mph7.4 kmh 30.33 in1027.1 mb - 0.00 in0.0 mm 0.03 in0.8 mm
08:40 PM 68.4°F20.2°C 67.8°F19.9°C 98% 3.5 mph SSW5.6 kmh SSW 6.9 mph11.1 kmh 30.34 in1027.4 mb - 0.00 in0.0 mm 0.03 in0.8 mm
08:45 PM 68.4°F20.2°C 67.8°F19.9°C 98% 1.2 mph WSW1.9 kmh WSW 2.3 mph3.7 kmh 30.39 in1029.1 mb - 0.00 in0.0 mm 0.03 in0.8 mm
08:50 PM 68.4°F20.2°C 67.8°F19.9°C 98% 3.5 mph S5.6 kmh S 3.5 mph5.6 kmh 30.39 in1029.1 mb - 0.00 in0.0 mm 0.03 in0.8 mm
08:55 PM 68.2°F20.1°C 67.7°F19.8°C 98% 2.3 mph W3.7 kmh W 3.5 mph5.6 kmh 30.46 in1031.5 mb - 0.00 in0.0 mm 0.03 in0.8 mm
09:00 PM 68.2°F20.1°C 67.6°F19.8°C 98% Calm Calm -- 30.46 in1031.5 mb - 0.00 in0.0 mm 0.03 in0.8 mm
09:10 PM 68.4°F20.2°C 67.5°F19.7°C 97% 1.2 mph E1.9 kmh E 1.2 mph1.9 kmh 30.50 in1032.8 mb - 0.00 in0.0 mm 0.03 in0.8 mm
09:15 PM 68.4°F20.2°C 67.5°F19.7°C 97% 1.2 mph E1.9 kmh E 1.2 mph1.9 kmh 30.50 in1032.8 mb - 0.00 in0.0 mm 0.03 in0.8 mm
09:20 PM 68.4°F20.2°C 67.5°F19.7°C 97% 1.2 mph E1.9 kmh E 1.2 mph1.9 kmh 30.54 in1034.2 mb - 0.00 in0.0 mm 0.03 in0.8 mm
09:25 PM 68.4°F20.2°C 67.5°F19.7°C 97% 1.2 mph E1.9 kmh E 2.3 mph3.7 kmh 30.54 in1034.2 mb - 0.00 in0.0 mm 0.03 in0.8 mm
09:30 PM 68.4°F20.2°C 67.8°F19.9°C 98% 2.3 mph E3.7 kmh E 2.3 mph3.7 kmh 30.56 in1034.9 mb - 0.00 in0.0 mm 0.03 in0.8 mm
09:35 PM 68.7°F20.4°C 68.1°F20.1°C 98% 2.3 mph E3.7 kmh E 2.3 mph3.7 kmh 30.56 in1034.9 mb - 0.00 in0.0 mm 0.03 in0.8 mm
09:40 PM 68.8°F20.4°C 68.2°F20.1°C 98% 2.3 mph E3.7 kmh E 2.3 mph3.7 kmh 30.59 in1035.9 mb - 0.00 in0.0 mm 0.03 in0.8 mm
09:45 PM 68.9°F20.5°C 68.3°F20.2°C 98% 2.3 mph E3.7 kmh E 2.3 mph3.7 kmh 30.61 in1036.6 mb - 0.00 in0.0 mm 0.03 in0.8 mm
09:50 PM 68.9°F20.5°C 68.3°F20.2°C 98% 1.2 mph E1.9 kmh E 1.2 mph1.9 kmh 30.61 in1036.6 mb - 0.00 in0.0 mm 0.03 in0.8 mm
09:55 PM 68.9°F20.5°C 68.3°F20.2°C 98% 2.3 mph E3.7 kmh E 2.3 mph3.7 kmh 30.69 in1039.3 mb - 0.00 in0.0 mm 0.03 in0.8 mm
10:00 PM 63.7°F17.6°C 62.8°F17.1°C 97% 2.3 mph ENE3.7 kmh ENE 2.3 mph3.7 kmh 30.69 in1039.3 mb - 0.00 in0.0 mm 0.03 in0.8 mm
10:10 PM 69.1°F20.6°C 67.3°F19.6°C 94% 2.3 mph NE3.7 kmh NE 2.3 mph3.7 kmh 30.73 in1040.6 mb - 0.00 in0.0 mm 0.03 in0.8 mm
10:15 PM 69.3°F20.7°C 67.2°F19.6°C 93% 2.3 mph NE3.7 kmh NE 4.6 mph7.4 kmh 30.73 in1040.6 mb - 0.00 in0.0 mm 0.03 in0.8 mm
10:20 PM 69.6°F20.9°C 67.2°F19.6°C 92% 3.5 mph NE5.6 kmh NE 3.5 mph5.6 kmh 30.79 in1042.7 mb - 0.00 in0.0 mm 0.03 in0.8 mm
10:25 PM 69.8°F21.0°C 67.0°F19.4°C 91% 3.5 mph NE5.6 kmh NE 5.8 mph9.3 kmh 30.79 in1042.7 mb - 0.00 in0.0 mm 0.03 in0.8 mm
10:30 PM 69.9°F21.1°C 66.5°F19.2°C 89% 3.5 mph NE5.6 kmh NE 4.6 mph7.4 kmh 30.84 in1044.4 mb - 0.00 in0.0 mm 0.03 in0.8 mm
10:35 PM 70.1°F21.2°C 66.7°F19.3°C 89% 3.5 mph ENE5.6 kmh ENE 4.6 mph7.4 kmh 30.84 in1044.4 mb - 0.00 in0.0 mm 0.03 in0.8 mm
10:40 PM 70.2°F21.2°C 66.8°F19.3°C 89% 3.5 mph NE5.6 kmh NE 3.5 mph5.6 kmh 30.84 in1044.4 mb - 0.00 in0.0 mm 0.03 in0.8 mm
10:45 PM 70.0°F21.1°C 66.6°F19.2°C 89% 3.5 mph NE5.6 kmh NE 4.6 mph7.4 kmh 30.90 in1046.4 mb - 0.00 in0.0 mm 0.03 in0.8 mm
10:50 PM 69.8°F21.0°C 66.4°F19.1°C 89% 2.3 mph ENE3.7 kmh ENE 2.3 mph3.7 kmh 30.90 in1046.4 mb - 0.00 in0.0 mm 0.03 in0.8 mm
10:55 PM 69.6°F20.9°C 66.2°F19.0°C 89% 2.3 mph NE3.7 kmh NE 2.3 mph3.7 kmh 31.00 in1049.8 mb - 0.00 in0.0 mm 0.03 in0.8 mm
11:00 PM 69.5°F20.8°C 66.1°F18.9°C 89% 2.3 mph NE3.7 kmh NE 2.3 mph3.7 kmh 31.00 in1049.8 mb - 0.00 in0.0 mm 0.03 in0.8 mm
11:10 PM 68.9°F20.5°C 65.8°F18.8°C 90% 2.3 mph ENE3.7 kmh ENE 2.3 mph3.7 kmh 31.03 in1050.8 mb - 0.00 in0.0 mm 0.03 in0.8 mm
11:15 PM 68.6°F20.3°C 65.9°F18.8°C 91% 2.3 mph NE3.7 kmh NE 3.5 mph5.6 kmh 31.03 in1050.8 mb - 0.00 in0.0 mm 0.03 in0.8 mm
11:20 PM 68.4°F20.2°C 65.6°F18.7°C 91% 2.3 mph NE3.7 kmh NE 2.3 mph3.7 kmh 31.09 in1052.8 mb - 0.00 in0.0 mm 0.03 in0.8 mm
11:25 PM 68.2°F20.1°C 65.5°F18.6°C 91% 2.3 mph NE3.7 kmh NE 2.3 mph3.7 kmh 31.09 in1052.8 mb - 0.00 in0.0 mm 0.03 in0.8 mm
11:30 PM 68.0°F20.0°C 65.6°F18.7°C 92% 2.3 mph NE3.7 kmh NE 1.2 mph1.9 kmh 31.13 in1054.2 mb - 0.00 in0.0 mm 0.03 in0.8 mm
11:35 PM 67.8°F19.9°C 65.4°F18.6°C 92% 2.3 mph NE3.7 kmh NE 3.5 mph5.6 kmh 31.13 in1054.2 mb - 0.00 in0.0 mm 0.03 in0.8 mm
11:40 PM 67.8°F19.9°C 65.4°F18.6°C 92% 2.3 mph NNE3.7 kmh NNE 3.5 mph5.6 kmh 31.14 in1054.5 mb - 0.00 in0.0 mm 0.03 in0.8 mm
11:45 PM 67.8°F19.9°C 65.4°F18.6°C 92% 2.3 mph NNE3.7 kmh NNE 3.5 mph5.6 kmh 31.19 in1056.2 mb - 0.00 in0.0 mm 0.03 in0.8 mm
11:50 PM 67.7°F19.8°C 65.3°F18.5°C 92% 2.3 mph NE3.7 kmh NE 1.2 mph1.9 kmh 31.19 in1056.2 mb - 0.00 in0.0 mm 0.03 in0.8 mm
11:55 PM 67.7°F19.8°C 65.3°F18.5°C 92% 1.2 mph ENE1.9 kmh ENE 1.2 mph1.9 kmh 31.28 in1059.3 mb - 0.00 in0.0 mm 0.03 in0.8 mm